createdAt,value
2023-05-06T00:02:15.211Z,14.98
2023-05-06T00:04:45.483Z,14.37
2023-05-06T00:07:15.858Z,14.40
2023-05-06T00:09:45.985Z,13.20
2023-05-06T00:12:16.176Z,12.77
2023-05-06T00:14:48.629Z,12.20
2023-05-06T00:17:21.578Z,12.15
2023-05-06T00:19:52.673Z,13.13
2023-05-06T00:22:22.817Z,12.50
2023-05-06T00:24:53.221Z,12.88
2023-05-06T00:27:24.338Z,13.02
2023-05-06T00:29:54.445Z,12.07
2023-05-06T00:32:27.370Z,13.60
2023-05-06T00:34:57.492Z,12.55
2023-05-06T00:37:27.590Z,12.68
2023-05-06T00:39:57.710Z,11.88
2023-05-06T00:42:27.975Z,12.73
2023-05-06T00:44:58.036Z,12.82
2023-05-06T00:47:31.062Z,13.30
2023-05-06T00:50:02.007Z,12.10
2023-05-06T00:52:33.832Z,13.50
2023-05-06T00:55:07.897Z,13.73
2023-05-06T00:57:40.526Z,13.25
2023-05-06T01:00:12.120Z,14.00
2023-05-06T01:02:47.785Z,13.57
2023-05-06T01:05:21.197Z,12.75
2023-05-06T01:08:01.792Z,12.77
2023-05-06T01:10:45.433Z,13.70
2023-05-06T01:13:23.788Z,13.17
2023-05-06T01:15:57.951Z,13.52
2023-05-06T01:18:36.489Z,13.98
2023-05-06T01:21:08.916Z,14.25
2023-05-06T01:23:58.384Z,12.98
2023-05-06T01:26:28.924Z,13.38
2023-05-06T01:29:02.223Z,15.75
2023-05-06T01:31:38.989Z,14.65
2023-05-06T01:34:21.301Z,13.80
2023-05-06T01:37:01.121Z,14.55
2023-05-06T01:39:35.524Z,14.77
2023-05-06T01:42:06.007Z,14.98
2023-05-06T01:44:37.221Z,14.45
2023-05-06T01:47:10.870Z,13.75
2023-05-06T01:52:11.159Z,13.70
2023-05-06T01:54:43.922Z,15.35
2023-05-06T01:57:14.015Z,15.23
2023-05-06T01:59:44.130Z,15.65
2023-05-06T02:02:14.277Z,14.80
2023-05-06T02:04:44.412Z,15.73
2023-05-06T02:07:14.760Z,16.10
2023-05-06T02:09:47.545Z,15.30
2023-05-06T02:12:17.981Z,20.35
2023-05-06T02:14:48.184Z,19.17
2023-05-06T02:17:18.329Z,24.45
2023-05-06T02:19:48.511Z,22.83
2023-05-06T02:22:18.753Z,23.27
2023-05-06T02:24:51.555Z,24.98
2023-05-06T02:27:22.060Z,22.75
2023-05-06T02:29:52.269Z,21.23
2023-05-06T02:32:22.530Z,22.08
2023-05-06T02:34:53.474Z,20.25
2023-05-06T02:37:25.674Z,20.92
2023-05-06T02:39:59.481Z,19.33
2023-05-06T02:42:29.666Z,19.33
2023-05-06T02:44:59.847Z,18.65
2023-05-06T02:47:30.026Z,17.55
2023-05-06T02:50:00.390Z,17.92
2023-05-06T02:52:30.474Z,17.65
2023-05-06T02:55:03.939Z,17.02
2023-05-06T02:57:34.126Z,139.85
2023-05-06T03:00:06.398Z,255.82
2023-05-06T03:02:36.621Z,392.58
2023-05-06T03:05:07.133Z,478.20
2023-05-06T03:07:38.774Z,428.52
2023-05-06T03:10:13.195Z,278.27
2023-05-06T03:12:43.934Z,366.20
2023-05-06T03:15:14.932Z,523.60
2023-05-06T03:17:45.217Z,588.78
2023-05-06T03:20:15.804Z,704.47
2023-05-06T03:22:53.003Z,554.25
2023-05-06T03:25:27.251Z,590.92
2023-05-06T03:27:58.259Z,644.88
2023-05-06T03:30:28.858Z,603.22
2023-05-06T03:33:04.315Z,370.08
2023-05-06T03:35:36.432Z,229.73
2023-05-06T03:38:06.650Z,440.98
2023-05-06T03:40:56.618Z,394.63
2023-05-06T03:43:28.196Z,488.75
2023-05-06T03:46:03.070Z,541.15
2023-05-06T03:48:35.057Z,566.30
2023-05-06T03:51:05.391Z,536.03
2023-05-06T03:53:35.943Z,440.27
2023-05-06T03:56:10.819Z,408.77
2023-05-06T03:58:42.045Z,326.23
2023-05-06T04:01:15.036Z,318.40
2023-05-06T04:03:45.210Z,389.77
2023-05-06T04:06:15.949Z,303.67
2023-05-06T04:08:46.093Z,236.43
2023-05-06T04:11:19.774Z,195.38
2023-05-06T04:13:51.233Z,200.90
2023-05-06T04:16:24.241Z,192.25
2023-05-06T04:18:55.611Z,155.43
2023-05-06T04:21:25.722Z,158.90
2023-05-06T04:24:02.728Z,133.02
2023-05-06T04:26:42.776Z,83.35
2023-05-06T04:29:13.083Z,69.00
2023-05-06T04:31:51.786Z,54.10
2023-05-06T04:34:22.905Z,38.53
2023-05-06T04:36:54.572Z,37.35
2023-05-06T04:39:47.219Z,29.25
2023-05-06T04:42:20.173Z,37.38
2023-05-06T04:45:03.784Z,28.63
2023-05-06T04:47:36.845Z,23.92
2023-05-06T04:50:09.768Z,25.50
2023-05-06T04:52:40.284Z,24.50
2023-05-06T04:55:11.844Z,23.60
2023-05-06T04:57:50.518Z,22.35
2023-05-06T05:00:20.965Z,24.30
2023-05-06T05:02:51.276Z,23.00
2023-05-06T05:05:22.688Z,24.73
2023-05-06T05:07:55.977Z,23.48
2023-05-06T05:10:27.931Z,23.63
2023-05-06T05:13:01.353Z,23.38
2023-05-06T05:15:32.119Z,23.38
2023-05-06T05:18:02.606Z,23.77
2023-05-06T05:20:32.785Z,22.15
2023-05-06T05:23:05.249Z,24.52
2023-05-06T05:25:36.595Z,24.25
2023-05-06T05:28:09.720Z,24.98
2023-05-06T05:30:42.915Z,23.42
2023-05-06T05:33:13.303Z,24.63
2023-05-06T05:35:43.780Z,24.85
2023-05-06T05:38:14.645Z,27.83
2023-05-06T05:40:45.146Z,26.52
2023-05-06T05:43:18.233Z,28.60
2023-05-06T05:45:48.720Z,26.93
2023-05-06T05:48:19.015Z,26.23
2023-05-06T05:50:49.863Z,26.13
2023-05-06T05:53:20.749Z,24.67
2023-05-06T05:55:50.901Z,26.10
2023-05-06T05:58:23.715Z,24.85
2023-05-06T06:00:55.337Z,26.33
2023-05-06T06:03:25.641Z,26.63
2023-05-06T06:05:55.977Z,26.13
2023-05-06T06:08:28.009Z,24.95
2023-05-06T06:10:59.430Z,22.55
2023-05-06T06:13:38.222Z,23.10
2023-05-06T06:16:09.748Z,23.48
2023-05-06T06:18:40.144Z,23.17
2023-05-06T06:21:10.334Z,22.48
2023-05-06T06:23:40.519Z,21.90
2023-05-06T06:26:12.178Z,22.13
2023-05-06T06:28:45.175Z,22.40
2023-05-06T06:31:15.433Z,23.92
2023-05-06T06:33:45.654Z,22.13
2023-05-06T06:36:15.892Z,21.92
2023-05-06T06:38:46.014Z,20.70
2023-05-06T06:41:16.135Z,19.90
2023-05-06T06:43:48.958Z,19.00
2023-05-06T06:46:22.934Z,21.02
2023-05-06T06:48:53.194Z,19.70
2023-05-06T06:51:23.376Z,19.83
2023-05-06T06:53:55.094Z,18.98
2023-05-06T06:56:25.333Z,18.77
2023-05-06T06:58:58.187Z,19.08
2023-05-06T07:01:28.453Z,18.63
2023-05-06T07:03:58.698Z,18.52
2023-05-06T07:06:28.925Z,19.20
2023-05-06T07:08:59.006Z,17.90
2023-05-06T07:11:29.346Z,19.13
2023-05-06T07:14:02.065Z,17.42
2023-05-06T07:16:32.260Z,19.13
2023-05-06T07:19:03.023Z,16.38
2023-05-06T07:21:33.730Z,18.00
2023-05-06T07:24:03.992Z,15.05
2023-05-06T07:26:39.089Z,13.23
2023-05-06T07:29:11.933Z,13.35
2023-05-06T07:31:42.201Z,14.63
2023-05-06T07:34:14.489Z,13.43
2023-05-06T07:36:45.382Z,13.63
2023-05-06T07:39:16.818Z,14.35
2023-05-06T07:41:47.018Z,13.50
2023-05-06T07:44:19.828Z,14.15
2023-05-06T07:46:50.107Z,13.48
2023-05-06T07:49:20.317Z,13.20
2023-05-06T07:51:50.609Z,12.88
2023-05-06T07:54:23.616Z,12.85
2023-05-06T07:56:53.791Z,12.40
2023-05-06T07:59:26.664Z,11.80
2023-05-06T08:01:56.818Z,10.18
2023-05-06T08:04:27.032Z,12.80
2023-05-06T08:06:57.517Z,12.23
2023-05-06T08:09:29.626Z,10.70
2023-05-06T08:11:59.852Z,10.73
2023-05-06T08:14:32.691Z,10.07
2023-05-06T08:17:02.810Z,13.70
2023-05-06T08:19:32.965Z,11.55
2023-05-06T08:22:03.074Z,11.80
2023-05-06T08:24:33.286Z,11.75
2023-05-06T08:27:06.523Z,10.48
2023-05-06T08:32:09.597Z,9.45
2023-05-06T08:34:39.861Z,9.73
2023-05-06T08:37:10.372Z,8.85
2023-05-06T08:39:40.646Z,9.77
2023-05-06T08:42:13.976Z,9.20
2023-05-06T08:44:47.285Z,9.65
2023-05-06T08:47:17.371Z,9.05
2023-05-06T08:49:47.563Z,8.88
2023-05-06T08:52:17.885Z,9.30
2023-05-06T08:54:49.238Z,9.05
2023-05-06T08:57:20.166Z,8.48
2023-05-06T08:59:53.044Z,8.30
2023-05-06T09:02:23.859Z,7.72
2023-05-06T09:04:56.641Z,8.50
2023-05-06T09:07:27.560Z,7.75
2023-05-06T09:09:57.732Z,6.78
2023-05-06T09:12:27.997Z,6.82
2023-05-06T09:15:00.794Z,6.53
2023-05-06T09:17:34.520Z,7.05
2023-05-06T09:20:06.654Z,7.38
2023-05-06T09:22:36.912Z,6.13
2023-05-06T09:25:07.588Z,6.32
2023-05-06T09:27:39.334Z,6.03
2023-05-06T09:30:15.190Z,5.25
2023-05-06T09:32:49.990Z,6.45
2023-05-06T09:35:20.232Z,7.15
2023-05-06T09:37:51.179Z,6.05
2023-05-06T09:40:21.642Z,5.57
2023-05-06T09:42:52.579Z,5.53
2023-05-06T09:45:26.265Z,5.07
2023-05-06T09:47:56.740Z,5.68
2023-05-06T09:50:28.212Z,5.28
2023-05-06T09:53:00.179Z,4.57
2023-05-06T09:55:31.543Z,3.83
2023-05-06T09:58:04.933Z,3.67
2023-05-06T10:00:39.437Z,3.20
2023-05-06T10:03:11.482Z,4.15
2023-05-06T10:05:42.636Z,3.75
2023-05-06T10:08:15.391Z,3.58
2023-05-06T10:10:47.317Z,3.97
2023-05-06T10:13:19.176Z,3.42
2023-05-06T10:15:53.114Z,4.28
2023-05-06T10:18:24.992Z,3.65
2023-05-06T10:20:56.055Z,3.78
2023-05-06T10:23:28.810Z,4.65
2023-05-06T10:26:07.017Z,4.13
2023-05-06T10:28:43.186Z,3.90
2023-05-06T10:31:16.890Z,3.83
2023-05-06T10:33:51.516Z,3.35
2023-05-06T10:36:24.360Z,4.13
2023-05-06T10:38:57.763Z,5.57
2023-05-06T10:41:29.509Z,4.40
2023-05-06T10:44:00.936Z,4.70
2023-05-06T10:47:02.752Z,4.47
2023-05-06T10:49:32.905Z,4.30
2023-05-06T10:52:20.517Z,4.07
2023-05-06T10:54:52.322Z,4.72
2023-05-06T10:57:27.325Z,4.35
2023-05-06T10:59:57.798Z,3.83
2023-05-06T11:02:33.727Z,3.60
2023-05-06T11:05:04.990Z,3.72
2023-05-06T11:07:35.214Z,4.00
2023-05-06T11:10:09.472Z,3.53
2023-05-06T11:12:51.793Z,3.97
2023-05-06T11:15:44.100Z,3.90
2023-05-06T11:18:47.039Z,3.70
2023-05-06T11:21:43.401Z,3.72
2023-05-06T11:24:15.982Z,3.55
2023-05-06T11:26:47.052Z,4.13
2023-05-06T11:29:19.248Z,3.65
2023-05-06T11:31:49.929Z,3.57
2023-05-06T11:34:27.504Z,3.55
2023-05-06T11:37:06.246Z,3.72
2023-05-06T11:39:40.713Z,3.00
2023-05-06T11:42:12.104Z,3.80
2023-05-06T11:44:43.073Z,3.10
2023-05-06T11:47:13.160Z,3.90
2023-05-06T11:49:47.073Z,3.92
2023-05-06T11:52:17.268Z,3.63
2023-05-06T11:54:49.653Z,3.25
2023-05-06T11:57:20.403Z,4.07
2023-05-06T11:59:56.365Z,4.03
2023-05-06T12:02:26.558Z,3.40
2023-05-06T12:04:59.582Z,3.70
2023-05-06T12:07:29.914Z,3.75
2023-05-06T12:10:04.303Z,3.95
2023-05-06T12:12:34.762Z,3.30
2023-05-06T12:15:05.238Z,3.90
2023-05-06T12:17:35.758Z,3.90
2023-05-06T12:20:10.355Z,3.30
2023-05-06T12:23:09.808Z,3.45
2023-05-06T12:25:40.427Z,3.78
2023-05-06T12:28:20.081Z,3.78
2023-05-06T12:30:50.688Z,3.55
2023-05-06T12:33:21.106Z,3.40
2023-05-06T12:35:57.273Z,4.40
2023-05-06T12:38:27.391Z,3.33
2023-05-06T12:40:58.470Z,4.30
2023-05-06T12:43:33.214Z,3.63
2023-05-06T12:46:07.668Z,3.60
2023-05-06T12:48:38.245Z,3.63
2023-05-06T12:51:25.274Z,4.15
2023-05-06T12:53:56.339Z,4.30
2023-05-06T12:56:26.599Z,2.90
2023-05-06T12:59:01.197Z,5.07
2023-05-06T13:01:31.929Z,3.90
2023-05-06T13:04:02.342Z,4.00
2023-05-06T13:06:35.076Z,4.63
2023-05-06T13:09:05.915Z,4.03
2023-05-06T13:11:36.119Z,3.55
2023-05-06T13:14:06.316Z,3.67
2023-05-06T13:16:36.696Z,4.15
2023-05-06T13:19:10.911Z,3.30
2023-05-06T13:21:48.794Z,3.13
2023-05-06T13:24:19.807Z,3.25
2023-05-06T13:26:49.953Z,3.50
2023-05-06T13:29:20.133Z,3.63
2023-05-06T13:31:50.297Z,3.97
2023-05-06T13:34:20.514Z,3.40
2023-05-06T13:36:54.849Z,3.42
2023-05-06T13:39:25.241Z,2.58
2023-05-06T13:41:55.665Z,3.10
2023-05-06T13:44:26.085Z,3.22
2023-05-06T13:46:58.330Z,3.10
2023-05-06T13:49:28.572Z,3.30
2023-05-06T13:52:01.670Z,3.03
2023-05-06T13:57:01.661Z,3.35
2023-05-06T13:59:31.809Z,2.97
2023-05-06T14:02:02.469Z,2.95
2023-05-06T14:04:32.685Z,3.15
2023-05-06T14:07:05.483Z,4.55
2023-05-06T14:09:35.665Z,4.35
2023-05-06T14:12:06.101Z,4.20
2023-05-06T14:14:36.323Z,4.85
2023-05-06T14:17:06.682Z,3.35
2023-05-06T14:19:36.888Z,3.70
2023-05-06T14:22:09.656Z,3.85
2023-05-06T14:24:39.835Z,3.75
2023-05-06T14:27:10.009Z,3.60
2023-05-06T14:29:43.296Z,3.72
2023-05-06T14:32:13.389Z,4.32
2023-05-06T14:34:43.577Z,3.88
2023-05-06T14:37:16.785Z,3.83
2023-05-06T14:42:16.880Z,3.65
2023-05-06T14:44:49.134Z,4.28
2023-05-06T14:47:22.016Z,4.72
2023-05-06T14:49:52.408Z,3.47
2023-05-06T14:52:25.288Z,4.25
2023-05-06T14:54:55.762Z,3.60
2023-05-06T14:57:26.034Z,4.10
2023-05-06T14:59:56.299Z,3.20
2023-05-06T15:02:26.674Z,4.05
2023-05-06T15:04:57.010Z,3.58
2023-05-06T15:07:29.790Z,3.47
2023-05-06T15:10:00.060Z,5.50
2023-05-06T15:12:30.319Z,5.85
2023-05-06T15:15:00.517Z,6.38
2023-05-06T15:17:30.770Z,7.07
2023-05-06T15:20:01.146Z,6.88
2023-05-06T15:22:33.982Z,6.88
2023-05-06T15:25:04.552Z,7.43
2023-05-06T15:27:34.881Z,6.38
2023-05-06T15:30:05.264Z,7.03
2023-05-06T15:32:35.622Z,6.28
2023-05-06T15:35:07.914Z,6.65
2023-05-06T15:37:40.908Z,8.32
2023-05-06T15:40:13.492Z,7.57
2023-05-06T15:42:43.782Z,7.53
2023-05-06T15:45:15.349Z,7.97
2023-05-06T15:47:45.788Z,7.15
2023-05-06T15:50:25.251Z,7.00
2023-05-06T15:53:08.273Z,7.03
2023-05-06T15:55:46.614Z,6.47
2023-05-06T15:58:19.934Z,6.20
2023-05-06T16:00:50.349Z,6.47
2023-05-06T16:03:20.909Z,6.95
2023-05-06T16:05:51.317Z,7.78
2023-05-06T16:08:24.073Z,7.13
2023-05-06T16:10:54.699Z,6.32
2023-05-06T16:13:25.424Z,6.60
2023-05-06T16:15:55.900Z,6.60
2023-05-06T16:18:26.304Z,7.72
2023-05-06T16:20:56.588Z,6.97
2023-05-06T16:23:31.724Z,7.43
2023-05-06T16:26:02.953Z,7.43
2023-05-06T16:28:33.114Z,7.20
2023-05-06T16:31:05.293Z,8.45
2023-05-06T16:33:35.822Z,7.38
2023-05-06T16:36:06.015Z,7.07
2023-05-06T16:38:39.516Z,7.32
2023-05-06T16:41:09.668Z,7.20
2023-05-06T16:43:39.802Z,6.13
2023-05-06T16:46:12.866Z,7.35
2023-05-06T16:48:43.190Z,6.72
2023-05-06T16:51:15.939Z,7.05
2023-05-06T16:53:48.712Z,6.90
2023-05-06T16:56:18.916Z,6.90
2023-05-06T16:58:49.133Z,6.90
2023-05-06T17:01:20.202Z,7.47
2023-05-06T17:03:50.369Z,7.32
2023-05-06T17:06:20.669Z,6.28
2023-05-06T17:08:54.526Z,7.05
2023-05-06T17:11:24.709Z,6.47
2023-05-06T17:13:54.912Z,7.63
2023-05-06T17:16:25.209Z,7.97
2023-05-06T17:18:55.414Z,8.85
2023-05-06T17:21:25.623Z,10.00
2023-05-06T17:23:58.479Z,13.57
2023-05-06T17:26:28.782Z,14.50
2023-05-06T17:28:58.902Z,22.63
2023-05-06T17:31:29.275Z,24.40
2023-05-06T17:33:59.867Z,22.08
2023-05-06T17:36:30.064Z,24.25
2023-05-06T17:39:08.181Z,24.48
2023-05-06T17:41:38.529Z,26.17
2023-05-06T17:44:09.769Z,31.50
2023-05-06T17:46:40.088Z,29.58
2023-05-06T17:49:10.508Z,16.80
2023-05-06T17:51:41.120Z,14.40
2023-05-06T17:54:14.193Z,14.38
2023-05-06T17:56:49.387Z,13.93
2023-05-06T17:59:21.449Z,14.02
2023-05-06T18:01:54.379Z,13.27
2023-05-06T18:04:24.525Z,12.40
2023-05-06T18:06:54.805Z,12.73
2023-05-06T18:09:27.595Z,10.88
2023-05-06T18:11:57.795Z,11.40
2023-05-06T18:14:28.032Z,11.35
2023-05-06T18:16:58.855Z,8.77
2023-05-06T18:19:29.125Z,8.27
2023-05-06T18:21:59.290Z,8.90
2023-05-06T18:24:34.812Z,9.20
2023-05-06T18:27:05.008Z,8.02
2023-05-06T18:29:35.807Z,8.68
2023-05-06T18:32:06.946Z,8.93
2023-05-06T18:34:37.276Z,8.27
2023-05-06T18:37:07.583Z,8.63
2023-05-06T18:39:43.582Z,8.93
2023-05-06T18:42:14.026Z,9.07
2023-05-06T18:44:45.486Z,9.60
2023-05-06T18:47:16.041Z,8.95
2023-05-06T18:49:49.009Z,8.88
2023-05-06T18:52:19.366Z,12.25
2023-05-06T18:54:52.350Z,21.45
2023-05-06T18:57:23.542Z,16.33
2023-05-06T18:59:58.840Z,11.80
2023-05-06T19:02:29.442Z,12.20
2023-05-06T19:05:00.664Z,14.40
2023-05-06T19:07:30.900Z,13.45
2023-05-06T19:10:04.346Z,13.05
2023-05-06T19:15:05.109Z,13.30
2023-05-06T19:17:35.793Z,13.15
2023-05-06T19:20:11.160Z,11.68
2023-05-06T19:22:42.451Z,10.88
2023-05-06T19:25:17.153Z,11.45
2023-05-06T19:27:47.424Z,10.77
2023-05-06T19:30:18.101Z,10.38
2023-05-06T19:32:49.000Z,10.10
2023-05-06T19:35:20.404Z,9.57
2023-05-06T19:37:50.890Z,10.18
2023-05-06T19:40:43.728Z,10.00
2023-05-06T19:43:20.150Z,9.98
2023-05-06T19:45:54.440Z,9.68
2023-05-06T19:48:31.743Z,9.82
2023-05-06T19:51:02.610Z,9.85
2023-05-06T19:53:32.806Z,9.80
2023-05-06T19:56:11.656Z,8.68
2023-05-06T19:58:42.167Z,9.27
2023-05-06T20:01:12.630Z,9.07
2023-05-06T20:03:43.338Z,9.18
2023-05-06T20:06:16.022Z,9.23
2023-05-06T20:08:46.465Z,10.40
2023-05-06T20:11:19.450Z,9.63
2023-05-06T20:13:49.746Z,8.80
2023-05-06T20:16:20.309Z,9.35
2023-05-06T20:18:51.811Z,9.05
2023-05-06T20:21:22.143Z,9.63
2023-05-06T20:23:52.429Z,8.77
2023-05-06T20:26:25.561Z,9.77
2023-05-06T20:28:55.827Z,8.45
2023-05-06T20:31:26.269Z,9.82
2023-05-06T20:33:56.507Z,10.68
2023-05-06T20:36:27.456Z,12.02
2023-05-06T20:38:58.104Z,12.10
2023-05-06T20:41:31.283Z,10.18
2023-05-06T20:44:01.578Z,10.57
2023-05-06T20:46:33.287Z,10.90
2023-05-06T20:49:06.272Z,10.82
2023-05-06T20:51:38.936Z,9.85
2023-05-06T20:54:09.334Z,10.27
2023-05-06T20:56:43.228Z,10.15
2023-05-06T20:59:13.509Z,9.80
2023-05-06T21:01:43.834Z,9.50
2023-05-06T21:04:14.039Z,9.77
2023-05-06T21:06:44.355Z,9.65
2023-05-06T21:09:14.914Z,10.48
2023-05-06T21:11:48.016Z,10.20
2023-05-06T21:14:18.196Z,10.27
2023-05-06T21:16:48.549Z,11.07
2023-05-06T21:19:18.640Z,11.13
2023-05-06T21:21:49.311Z,11.55
2023-05-06T21:24:19.658Z,10.73
2023-05-06T21:26:53.181Z,10.43
2023-05-06T21:31:53.384Z,13.30
2023-05-06T21:34:23.720Z,12.73
2023-05-06T21:36:53.890Z,11.82
2023-05-06T21:39:24.067Z,12.73
2023-05-06T21:41:56.847Z,12.88
2023-05-06T21:44:27.071Z,14.35
2023-05-06T21:46:57.239Z,14.65
2023-05-06T21:49:27.411Z,14.15
2023-05-06T21:51:57.587Z,14.18
2023-05-06T21:54:28.014Z,14.80
2023-05-06T21:57:01.125Z,14.00
2023-05-06T21:59:31.357Z,15.27
2023-05-06T22:02:01.604Z,14.63
2023-05-06T22:04:31.786Z,14.43
2023-05-06T22:07:01.975Z,14.80
2023-05-06T22:09:32.163Z,15.98
2023-05-06T22:12:06.994Z,14.30
2023-05-06T22:14:41.292Z,14.43
2023-05-06T22:17:12.822Z,14.18
2023-05-06T22:19:43.349Z,13.52
2023-05-06T22:22:14.033Z,14.20
2023-05-06T22:24:44.294Z,13.45
2023-05-06T22:27:17.232Z,13.45
2023-05-06T22:29:47.427Z,14.43
2023-05-06T22:32:17.714Z,13.75
2023-05-06T22:34:49.180Z,14.25
2023-05-06T22:37:20.025Z,14.27
2023-05-06T22:39:51.082Z,14.93
2023-05-06T22:42:23.998Z,16.08
2023-05-06T22:44:54.158Z,16.75
2023-05-06T22:47:24.350Z,17.58
2023-05-06T22:49:57.049Z,18.25
2023-05-06T22:52:27.206Z,19.37
2023-05-06T22:54:57.458Z,18.73
2023-05-06T22:57:30.402Z,19.77
2023-05-06T23:00:00.549Z,18.98
2023-05-06T23:02:31.411Z,18.80
2023-05-06T23:05:01.630Z,18.52
2023-05-06T23:07:31.710Z,18.40
2023-05-06T23:10:02.073Z,19.02
2023-05-06T23:12:38.205Z,19.95
2023-05-06T23:15:10.393Z,19.42
2023-05-06T23:17:40.791Z,18.73
2023-05-06T23:20:13.033Z,20.63
2023-05-06T23:22:43.277Z,21.17
2023-05-06T23:25:14.532Z,20.55
2023-05-06T23:27:47.378Z,20.00
2023-05-06T23:30:17.882Z,19.53
2023-05-06T23:32:51.983Z,19.33
2023-05-06T23:35:26.143Z,19.33
2023-05-06T23:37:56.305Z,21.08
2023-05-06T23:40:26.411Z,20.13
2023-05-06T23:42:59.181Z,22.13
2023-05-06T23:45:32.349Z,20.67
2023-05-06T23:48:02.686Z,22.65
2023-05-06T23:50:32.962Z,21.98
2023-05-06T23:53:03.626Z,22.35
2023-05-06T23:55:34.403Z,22.92
2023-05-06T23:58:07.209Z,23.98
